Santa Clara, California
Current Conditions -  °F | °C
As of 6:53 AM on Friday 24 Oct 2014 (Local Time) from KSJC Reporting Station
Few Clouds Few Clouds  
Wind Chill: 51°   Ceiling: Unl
Heat Index: 51°   Visibility: 10mi
Dew Point: 49°   Wind: 0mph
Humidity: 92%   Direction: NA
Pressure: 29.96"   Gusts: NA
Location:  37.36°N, 121.95°W
Report Text: KSJC 241353Z 00000KT 10SM FEW005 11/09 A2996 RMK AO2 SLP145 T01060094
Loading
Personal Weather Stations






























Interactive Weather Map
Tropical Storm Tracking
New forecast layout! Learn more

10-Day Weather Forecast

Advertisements
Track Severe Weather on mobile